Date,TemperatureHighF,TemperatureAvgF,TemperatureLowF,DewpointHighF,DewpointAvgF,DewpointLowF,HumidityHigh,HumidityAvg,HumidityLow,PressureMaxIn,PressureMinIn,WindSpeedMaxMPH,WindSpeedAvgMPH,GustSpeedMaxMPH,PrecipitationSumIn
2013-1-1,46.8,34.7,27.9,32.5,28.1,25.1,91,78,49,30.26,30.18,5,0,7,0.00
2013-1-2,54.1,37.3,27.8,34.6,26.0,20.2,88,67,28,30.24,30.13,3,0,4,0.01
2013-1-3,53.1,38.2,28.2,35.1,29.0,23.7,87,72,42,30.26,30.13,5,0,6,0.00
2013-1-4,54.8,40.6,31.9,35.8,29.4,23.4,87,67,39,30.28,30.16,3,0,6,0.00
2013-1-5,52.2,40.8,33.4,38.3,33.1,28.4,89,76,43,30.25,30.05,5,0,10,0.00
2013-1-6,45.5,39.5,35.2,39.6,36.5,32.6,93,89,75,30.15,30.02,3,0,6,0.04
2013-1-7,54.4,41.3,33.1,40.6,34.6,29.2,92,78,44,30.20,30.10,9,0,12,0.01
2013-1-8,55.6,42.4,32.5,44.0,37.8,30.4,94,85,62,30.22,30.09,5,0,6,0.00
2013-1-9,50.1,41.7,31.8,42.5,37.3,29.5,93,85,58,30.13,29.84,17,0,17,0.29
2013-1-10,40.2,32.2,26.1,33.4,28.0,23.6,93,85,55,30.12,29.95,13,0,16,0.07
2013-1-11,41.2,30.4,23.3,30.8,24.1,18.8,91,79,46,30.23,30.11,5,0,6,0.02
2013-1-12,41.5,30.1,20.8,20.9,17.1,9.7,84,60,28,30.23,30.10,6,0,6,0.00
2013-1-13,41.1,29.9,18.9,19.7,12.3,1.6,86,52,24,30.26,30.14,12,0,14,0.00
2013-1-14,46.5,33.7,24.8,20.5,11.1,2.0,73,41,22,30.37,30.18,6,0,7,0.00
2013-1-15,47.1,33.6,24.8,28.7,23.2,18.8,87,68,40,30.49,30.37,6,0,6,0.00
2013-1-16,56.7,39.3,28.1,29.5,25.2,19.5,88,62,26,30.45,30.24,5,0,5,0.00
2013-1-17,63.4,44.0,30.3,33.8,24.2,15.6,76,50,20,30.28,30.14,4,0,5,0.00
2013-1-18,66.0,46.5,35.6,31.6,24.5,17.5,69,45,18,30.23,30.11,5,0,5,0.00
2013-1-19,65.6,46.5,35.0,33.9,26.0,17.3,68,48,20,30.25,30.12,3,0,5,0.00
2013-1-20,65.3,46.5,36.0,34.8,25.7,17.4,80,48,19,30.23,30.08,5,0,6,0.00
2013-1-21,64.2,46.7,35.3,32.6,26.4,18.1,79,48,20,30.16,30.10,5,0,7,0.00
2013-1-22,66.6,48.3,36.3,34.9,26.4,18.2,68,45,18,30.13,29.99,5,0,7,0.00
2013-1-23,62.4,49.8,41.8,43.1,31.1,22.1,88,53,23,30.07,29.96,7,0,9,0.02
2013-1-24,56.2,50.9,47.0,49.4,45.9,41.7,93,83,71,30.12,30.00,4,0,6,0.07
2013-1-25,59.0,51.8,49.5,53.7,49.1,47.3,95,91,75,30.12,29.97,9,0,10,0.20
2013-1-26,49.5,45.9,38.3,47.8,43.4,34.5,94,91,78,29.97,29.87,8,0,12,0.04
2013-1-27,46.2,38.1,30.9,37.7,33.3,28.3,93,84,56,30.11,29.94,7,0,11,0.14
2013-1-28,49.4,37.1,28.2,31.9,28.2,24.3,91,73,40,30.24,30.10,13,1,20,0.00
2013-1-29,53.1,41.4,31.5,37.8,33.2,28.4,90,74,47,30.31,30.20,10,0,11,0.00
2013-1-30,58.3,46.7,38.2,42.2,37.3,32.7,92,71,48,30.30,30.21,6,0,7,0.00
2013-1-31,62.3,46.3,34.3,43.2,37.6,31.8,92,75,37,30.29,30.16,4,0,6,0.00
2013-2-1,65.2,49.1,37.3,41.1,35.4,29.6,90,63,30,30.22,30.09,6,0,9,0.00
2013-2-2,64.7,49.2,41.1,42.0,35.9,30.0,84,63,28,30.25,30.15,3,0,3,0.00
2013-2-3,61.2,46.8,36.5,42.6,34.3,26.6,91,64,34,30.19,30.07,7,0,12,0.00
2013-2-4,64.5,48.3,37.8,42.9,33.6,23.5,88,60,26,30.14,30.00,8,0,9,0.00
2013-2-5,55.4,43.3,34.6,43.4,36.7,31.0,92,79,57,30.08,29.96,7,0,11,0.00
2013-2-6,56.5,41.4,30.0,34.7,30.8,21.2,92,70,29,30.15,30.06,6,0,9,0.01
2013-2-7,43.2,39.5,31.8,38.9,35.1,28.9,90,84,72,30.09,29.95,10,0,12,0.04
2013-2-8,48.3,37.0,26.9,32.1,24.0,17.0,92,64,30,29.95,29.86,11,1,16,0.01
2013-2-9,49.1,37.5,27.0,28.2,22.7,16.4,80,57,30,30.07,29.91,9,0,11,0.00
2013-2-10,54.4,40.5,26.6,34.0,23.6,16.1,83,55,23,30.12,29.97,12,0,12,0.00
2013-2-11,55.3,41.9,29.1,28.9,21.8,14.3,75,48,21,30.21,30.03,13,1,14,0.00
2013-2-12,55.0,41.0,29.4,35.0,29.4,22.8,88,65,42,30.35,30.20,6,0,7,0.00
2013-2-13,58.9,43.3,30.6,39.3,34.3,28.0,92,73,42,30.32,30.18,7,0,9,0.00
2013-2-14,70.8,52.4,38.0,42.5,34.8,25.3,79,54,23,30.20,30.11,9,0,10,0.00
2013-2-15,67.6,51.2,39.1,40.3,30.9,23.9,74,49,23,30.25,30.15,5,0,6,0.00
2013-2-16,66.8,50.0,39.5,40.5,31.9,22.9,83,53,25,30.22,29.98,5,0,5,0.00
2013-2-17,62.0,47.2,36.3,38.9,34.3,26.0,86,64,29,30.00,29.90,6,0,9,0.00
2013-2-18,57.2,43.5,34.0,39.9,34.5,30.3,86,72,45,29.97,29.84,15,1,17,0.00
2013-2-19,38.9,34.5,30.1,34.4,31.2,28.0,92,88,78,29.84,29.70,12,1,17,0.34
2013-2-20,52.2,37.2,27.8,39.0,29.4,25.5,92,76,38,30.00,29.77,12,0,14,0.08
2013-2-21,53.3,39.6,29.4,34.7,28.8,16.6,92,69,25,30.12,29.98,12,1,16,0.01
2013-2-22,55.9,42.6,30.0,35.7,30.3,24.6,84,64,37,30.20,30.10,7,0,9,0.00
2013-2-23,50.7,44.2,39.1,37.6,27.5,12.1,87,55,26,30.16,30.05,13,1,16,0.00
2013-2-24,60.2,43.9,29.3,29.1,20.1,9.2,75,42,16,30.20,30.08,7,0,12,0.00
2013-2-25,43.9,32.8,30.7,29.1,25.8,24.3,80,76,57,30.26,30.20,2,0,3,0.00
2013-2-26,63.7,47.6,34.6,27.6,16.9,8.0,75,34,12,30.17,30.06,5,1,18,0.00
2013-2-27,62.7,53.0,36.3,27.0,20.2,12.7,41,28,21,30.27,30.17,5,0,6,0.00
2013-2-28,65.2,50.8,38.6,38.4,32.4,26.3,78,52,25,30.40,30.30,4,0,18,0.00
2013-3-1,70.6,58.0,40.1,46.3,42.4,35.7,85,60,32,30.38,30.20,6,0,7,0.00
2013-3-2,68.3,55.1,44.1,44.0,39.3,31.5,85,59,27,30.21,30.00,6,0,7,0.00
2013-3-3,56.6,50.5,43.2,46.8,43.7,40.5,91,78,62,30.01,29.96,5,0,7,0.02
2013-3-4,63.9,49.1,36.9,44.2,40.2,34.8,93,74,38,30.07,29.96,7,0,13,0.01
2013-3-5,56.3,46.8,42.1,44.1,39.3,35.2,92,76,51,29.98,29.76,15,1,16,0.00
2013-3-6,45.7,40.5,35.5,39.9,36.5,32.9,92,86,67,30.01,29.78,19,2,23,0.73
2013-3-7,49.4,40.4,32.5,41.7,34.7,30.4,93,81,51,29.97,29.82,6,0,7,0.01
2013-3-8,55.9,44.1,31.9,39.1,34.1,29.0,92,71,38,29.95,29.75,15,1,16,0.03
2013-3-9,64.0,47.9,33.1,37.4,30.3,13.8,92,56,14,30.27,29.94,14,1,18,0.00
2013-3-10,61.2,47.6,32.9,42.0,31.4,19.1,89,55,34,30.32,30.20,6,0,11,0.00
2013-3-11,68.3,51.1,36.6,44.7,39.5,33.4,92,68,37,30.23,30.06,7,0,11,0.00
2013-3-12,72.7,55.4,40.6,47.9,43.0,37.5,90,67,37,30.11,30.00,9,0,9,0.00
2013-3-13,76.0,58.8,44.3,46.6,41.6,33.9,87,58,26,30.14,30.04,7,0,12,0.00
2013-3-14,75.3,60.0,47.9,49.8,42.0,34.7,80,54,27,30.08,30.02,6,0,10,0.00
2013-3-15,73.2,56.5,46.2,46.1,41.2,31.2,82,60,23,30.05,29.96,9,0,10,0.00
2013-3-16,69.8,54.6,41.8,45.5,36.8,24.9,85,56,20,30.01,29.93,13,0,13,0.00
2013-3-17,64.5,50.7,37.9,39.8,34.1,28.7,78,56,30,30.05,29.98,10,0,11,0.00
2013-3-18,67.8,52.5,39.6,41.4,33.9,23.6,72,52,20,30.06,29.97,10,0,11,0.00
2013-3-19,65.5,52.9,43.3,49.0,41.4,32.8,92,68,32,30.06,29.99,6,0,11,0.26
2013-3-20,51.1,48.8,46.2,48.9,46.8,44.3,93,92,90,30.06,30.00,13,0,14,1.16
2013-3-21,58.4,49.9,40.8,47.4,42.7,33.5,94,78,48,30.03,29.93,14,1,14,0.01
2013-3-22,57.5,46.6,34.4,39.5,25.0,9.9,89,48,16,30.02,29.94,15,2,18,0.00
2013-3-23,63.4,48.6,35.2,33.8,25.8,12.3,72,44,19,30.06,29.98,8,0,10,0.00
2013-3-24,67.3,51.7,37.8,39.4,33.2,28.7,74,53,27,30.06,29.92,9,0,12,0.00
2013-3-25,66.8,53.2,39.6,42.9,38.6,34.5,83,60,33,29.95,29.83,6,0,10,0.00
2013-3-26,64.5,52.8,40.2,42.2,39.9,36.9,90,64,39,29.90,29.82,9,0,10,0.00
2013-3-27,66.0,53.5,41.6,47.1,42.5,38.1,88,68,42,29.93,29.86,9,0,12,0.00
2013-3-28,59.3,52.3,46.0,50.1,45.0,42.8,89,77,57,30.06,29.92,6,0,9,0.01
2013-3-29,72.7,57.8,43.9,46.0,41.1,35.8,89,58,28,30.07,29.96,9,0,13,0.01
2013-3-30,73.5,60.0,47.4,49.5,44.8,40.4,86,59,33,29.98,29.88,6,0,11,0.00
2013-3-31,59.8,52.0,46.1,50.2,46.4,41.8,95,82,54,30.02,29.90,7,0,14,0.57
2013-4-1,60.2,50.1,43.5,49.2,44.2,41.3,94,81,54,30.11,29.99,10,0,10,0.08
2013-4-2,66.3,51.9,39.3,48.0,42.8,37.2,93,74,46,30.12,30.03,10,0,12,0.00
2013-4-3,73.5,55.9,43.5,53.2,46.7,41.1,93,75,35,30.09,29.93,9,0,10,0.00
2013-4-4,53.8,50.8,45.8,51.8,48.6,41.3,93,92,74,30.05,29.89,6,0,10,0.60
2013-4-5,59.8,52.6,48.0,49.3,47.0,43.8,94,82,59,30.09,30.03,6,0,7,0.01
2013-4-6,60.5,52.2,46.7,48.7,46.1,43.8,92,80,57,30.11,30.04,4,0,6,0.00
2013-4-7,62.0,52.6,43.2,48.8,45.7,40.5,91,78,54,30.08,29.70,13,1,14,0.05
2013-4-8,59.9,49.0,40.2,41.0,31.5,18.4,93,58,22,29.95,29.65,17,2,20,0.52
2013-4-9,70.3,56.2,40.9,33.9,22.5,10.8,51,30,10,30.05,29.93,17,1,17,0.00
2013-4-10,76.8,61.1,45.5,47.6,37.0,25.6,68,43,26,30.12,29.88,14,1,15,0.00
2013-4-11,71.3,59.2,48.6,49.5,42.7,31.1,87,58,24,29.90,29.75,12,1,16,0.00
2013-4-12,75.6,58.9,45.1,48.0,38.1,30.6,76,49,23,29.82,29.74,14,0,15,0.00
2013-4-13,72.7,58.7,46.0,46.4,39.5,34.7,73,52,27,29.80,29.71,12,0,13,0.00
2013-4-14,65.6,54.6,41.2,40.9,34.4,19.9,76,50,19,29.79,29.66,10,0,11,0.00
2013-4-15,53.2,46.2,36.3,40.8,34.8,23.0,88,66,32,29.83,29.70,13,1,17,0.00
2013-4-16,58.0,45.5,32.9,33.7,22.9,7.9,89,50,14,30.01,29.83,14,1,19,0.00
2013-4-17,63.5,50.6,35.8,24.2,16.0,9.9,62,27,12,30.19,30.10,5,1,19,0.00
2013-4-18,67.1,54.2,37.5,36.3,26.2,18.5,62,36,20,30.21,30.14,2,0,11,0.00
2013-4-19,72.5,57.8,42.6,42.7,36.4,32.0,68,48,26,30.19,30.01,3,0,13,0.00
2013-4-20,74.0,60.8,47.1,41.0,37.5,31.4,72,45,26,30.02,29.91,6,0,13,0.00
2013-4-21,77.4,62.8,46.8,45.9,39.5,32.5,72,46,20,29.97,29.88,11,0,13,0.00
2013-4-22,79.4,65.1,50.2,49.6,39.6,27.0,69,43,18,29.90,29.77,14,1,17,0.00
2013-4-23,78.1,66.3,52.0,36.6,25.4,12.2,53,23,10,29.83,29.76,12,0,14,0.00
2013-4-24,83.0,65.9,48.0,35.9,24.5,14.5,60,26,9,29.80,29.67,12,1,17,0.00
2013-4-25,72.8,58.7,42.6,47.3,39.0,25.9,84,50,27,30.00,29.76,6,0,9,0.00
2013-4-26,77.4,61.3,45.4,50.7,45.5,39.4,86,60,31,30.10,30.00,7,0,10,0.00
2013-4-27,81.8,66.7,49.4,51.3,46.6,41.4,84,53,27,30.12,29.97,7,0,11,0.00
2013-4-28,79.6,65.5,58.0,49.8,47.4,42.7,68,54,27,29.84,29.80,5,0,5,0.00
2013-4-29,81.4,67.7,53.8,54.4,46.1,36.5,78,50,21,29.80,29.67,10,0,11,0.01
2013-4-30,77.2,65.7,50.5,50.6,34.9,6.6,78,39,10,29.79,29.64,11,1,14,0.00
2013-5-1,84.7,66.1,56.2,25.4,11.2,4.1,25,12,6,30.03,29.76,14,1,16,0.00
2013-5-2,84.3,71.1,56.3,39.7,24.5,1.9,49,19,8,30.08,29.99,9,0,12,0.00
2013-5-3,83.0,68.4,53.2,47.7,40.0,34.8,61,39,19,30.01,29.72,10,0,12,0.00
2013-5-4,82.8,71.9,56.6,44.2,30.4,19.4,62,23,15,29.73,29.43,11,1,15,0.00
2013-5-5,68.6,59.3,49.6,46.0,41.1,29.1,72,52,26,29.74,29.43,5,0,8,0.00
2013-5-6,62.6,54.4,49.9,50.9,47.6,43.5,92,78,54,29.89,29.73,4,0,6,0.40
2013-5-7,56.7,53.3,50.8,54.1,50.5,47.7,93,90,85,29.97,29.86,2,0,3,0.23
2013-5-8,65.8,57.6,52.3,55.2,51.3,48.3,93,81,55,30.03,29.95,6,0,6,0.02
2013-5-9,74.4,61.0,48.2,55.9,51.6,46.3,94,74,47,30.04,29.96,9,0,15,0.00
2013-5-10,83.0,66.9,52.8,59.6,55.2,50.5,93,69,39,30.06,29.98,8,0,9,0.00
2013-5-11,87.8,71.6,55.7,60.8,55.6,51.3,89,61,31,30.02,29.95,5,0,10,0.00
2013-5-12,89.5,72.6,58.0,58.3,48.4,37.3,83,49,17,30.02,29.91,7,0,10,0.00
2013-5-13,88.6,71.9,54.4,51.9,41.5,28.5,67,39,12,29.97,29.82,5,0,9,0.00
2013-5-14,84.0,70.7,58.0,53.4,45.8,37.0,67,42,27,29.83,29.75,9,0,14,0.00
2013-5-15,76.0,64.3,52.9,51.7,45.6,39.3,78,53,30,29.89,29.79,9,0,9,0.00
2013-5-16,66.3,57.0,51.3,51.1,46.8,42.6,86,70,49,29.92,29.81,7,0,10,0.02
2013-5-17,69.3,56.6,43.8,46.3,41.8,34.9,90,61,30,29.98,29.85,6,0,9,0.00
2013-5-18,74.6,59.7,43.8,45.5,39.4,33.2,81,51,23,30.03,29.96,9,0,12,0.00
2013-5-19,73.0,57.3,50.2,44.0,40.7,30.6,73,57,23,30.01,29.98,12,0,15,0.00
2013-5-20,84.0,67.9,53.6,43.1,38.3,25.6,59,38,14,29.91,29.80,3,0,9,0.00
2013-5-21,75.4,62.9,44.8,42.7,36.3,26.3,63,40,17,29.83,29.75,13,0,13,0.00
2013-5-22,64.8,50.4,34.3,31.8,24.2,10.2,72,40,13,29.85,29.80,9,0,12,0.00
2013-5-23,67.4,54.2,35.3,37.5,29.6,23.9,65,41,25,29.92,29.81,12,0,15,0.00
2013-5-24,73.2,58.0,39.9,37.4,33.7,30.0,74,44,22,29.90,29.82,11,0,13,0.00
2013-5-25,73.0,59.3,43.5,41.9,35.6,27.4,72,45,19,29.90,29.84,5,0,10,0.00
2013-5-26,71.6,58.2,44.8,47.7,42.6,38.5,84,59,34,30.00,29.89,9,0,10,0.00
2013-5-27,61.3,53.6,44.8,50.3,46.3,41.2,91,77,59,30.03,29.91,5,0,6,0.06
2013-5-28,71.3,59.0,51.3,53.8,50.1,46.8,93,75,44,29.91,29.81,5,0,9,0.10
2013-5-29,73.9,61.4,52.2,53.5,49.5,45.5,92,68,38,29.86,29.77,10,0,11,0.01
2013-5-30,79.2,64.4,49.5,49.5,42.9,32.8,84,51,19,29.89,29.82,10,0,12,0.00
2013-5-31,85.3,66.2,49.4,44.6,40.8,36.4,67,44,21,29.90,29.84,15,1,15,0.00
2013-6-1,90.7,75.0,57.2,50.2,42.6,34.5,58,34,17,29.82,29.66,1,0,10,0.00
2013-6-2,91.4,76.6,59.2,50.5,45.4,38.6,57,37,16,29.68,29.53,1,0,9,0.00
2013-6-3,90.1,76.8,59.6,54.0,49.4,42.4,66,41,22,29.66,29.56,7,0,11,0.00
2013-6-4,86.5,72.2,59.0,55.8,52.6,49.0,73,53,31,29.77,29.66,7,0,9,0.00
2013-6-5,88.8,72.9,56.5,59.8,55.4,52.0,88,58,31,29.83,29.75,5,0,10,0.00
2013-6-6,92.5,75.7,59.9,63.5,57.2,53.2,84,57,28,29.78,29.69,10,0,10,0.00
2013-6-7,101.5,81.6,60.7,59.8,51.1,40.0,78,41,15,29.74,29.62,10,0,11,0.00
2013-6-8,102.8,86.7,68.1,59.8,53.0,45.9,51,34,18,29.63,29.53,10,0,12,0.00
2013-6-9,85.3,75.4,62.7,58.8,54.0,49.1,64,48,33,29.71,29.56,6,0,10,0.00
2013-6-10,68.3,60.7,53.8,56.0,50.3,46.8,87,69,52,29.87,29.67,6,0,7,0.02
2013-6-11,82.0,66.8,50.4,53.1,49.2,45.4,91,58,29,29.89,29.78,6,0,11,0.00
2013-6-12,82.4,68.7,53.3,53.1,43.5,29.9,83,46,17,29.84,29.78,11,0,13,0.00
2013-6-13,79.8,65.3,48.3,41.9,35.2,24.9,66,37,14,29.97,29.83,11,0,13,0.00
2013-6-14,84.3,66.3,50.7,47.7,37.2,29.9,56,36,17,29.90,29.72,4,0,9,0.00
2013-6-15,86.7,70.1,52.9,47.5,37.5,21.9,68,37,10,29.84,29.73,6,0,7,0.00
2013-6-16,86.1,70.5,53.9,44.8,37.6,31.0,51,33,15,29.93,29.83,11,0,14,0.00
2013-6-17,83.2,69.4,54.1,48.9,41.5,32.9,64,40,18,29.93,29.84,10,0,11,0.00
2013-6-18,72.5,61.6,49.6,48.0,44.0,36.7,84,55,28,29.87,29.81,9,1,11,0.00
2013-6-19,72.7,59.6,43.5,43.5,37.1,25.3,87,49,18,29.94,29.85,12,0,14,0.00
2013-6-20,78.3,64.1,48.5,39.7,36.1,31.8,57,38,20,29.91,29.82,12,0,13,0.00
2013-6-21,82.2,68.4,53.2,42.8,38.0,34.2,53,35,20,29.87,29.78,11,1,16,0.00
2013-6-22,87.2,72.1,55.1,43.4,39.0,31.9,63,34,15,29.82,29.69,9,0,13,0.00
2013-6-23,73.2,63.0,55.3,55.3,48.2,38.0,83,59,43,29.76,29.65,7,0,12,0.00
2013-6-24,59.9,57.2,55.1,55.8,53.8,51.6,94,89,82,29.86,29.67,6,0,11,0.69
2013-6-25,64.7,60.0,55.0,62.4,58.2,53.0,94,94,93,29.93,29.83,6,0,12,0.78
2013-6-26,84.3,70.9,61.0,64.6,60.6,56.8,95,73,42,29.95,29.88,5,0,13,0.00
2013-6-27,91.0,75.3,58.9,63.7,59.4,51.0,94,63,27,29.97,29.89,7,0,12,0.00
2013-6-28,98.5,80.2,63.2,61.9,55.1,41.8,82,48,15,29.93,29.78,7,0,7,0.00
2013-6-29,99.9,83.3,67.4,61.5,55.0,46.0,61,41,17,29.83,29.67,12,0,14,0.00
2013-6-30,101.7,84.3,67.4,62.2,55.4,46.6,66,42,17,29.71,29.62,5,0,7,0.00
2013-7-1,102.8,85.6,68.3,64.3,56.5,47.2,66,41,17,29.73,29.65,6,0,7,0.00
2013-7-2,102.3,86.6,76.1,69.1,60.1,52.7,65,43,24,29.76,29.66,9,0,9,0.00
2013-7-3,102.5,85.2,68.1,64.4,60.2,53.7,79,48,20,29.76,29.63,7,0,12,0.00
2013-7-4,101.5,85.5,72.1,67.5,59.2,42.9,72,45,15,29.64,29.51,10,0,11,0.00
2013-7-5,91.6,78.6,64.0,56.4,48.7,37.2,64,38,19,29.62,29.50,11,0,13,0.00
2013-7-6,90.5,73.9,58.1,52.5,46.6,34.8,69,43,15,29.66,29.59,6,0,10,0.00
2013-7-7,92.3,76.4,59.3,51.3,45.1,38.3,63,37,18,29.72,29.65,7,0,10,0.00
2013-7-8,92.3,76.4,60.9,52.0,45.2,35.0,64,38,14,29.85,29.71,5,0,9,0.00
2013-7-9,96.8,80.1,61.2,47.8,40.1,30.4,57,29,10,29.92,29.82,12,0,13,0.00
2013-7-10,95.6,79.9,64.2,46.9,39.7,34.7,39,26,14,29.84,29.74,4,0,7,0.00
2013-7-11,92.5,75.0,59.5,47.3,37.5,25.8,56,30,11,29.78,29.73,5,0,7,0.00
2013-7-12,89.3,72.7,55.7,44.1,38.5,30.6,51,32,14,29.80,29.73,6,0,10,0.00
2013-7-13,92.1,75.6,57.2,46.8,39.9,31.5,50,31,13,29.84,29.77,0,0,0,0.00
2013-7-14,93.6,77.4,60.2,49.7,44.3,38.2,55,34,15,29.84,29.73,9,0,11,0.00
2013-7-15,91.4,75.4,61.3,49.9,43.3,33.1,57,35,17,29.77,29.67,7,0,10,0.00
2013-7-16,84.0,67.2,57.3,48.4,38.3,28.2,58,37,16,29.81,29.68,7,0,8,0.00
2013-7-19,97.1,79.5,61.6,48.5,44.4,39.2,55,33,14,29.81,29.67,1,0,11,0.00
2013-7-20,98.7,82.2,65.8,53.5,49.8,46.8,55,36,18,29.71,29.57,1,0,10,0.00
2013-7-21,98.7,82.5,67.6,56.9,50.3,39.5,63,37,17,29.72,29.61,1,0,10,0.00
2013-7-22,91.2,77.0,62.6,53.4,42.4,35.5,62,31,17,29.85,29.73,0,0,9,0.00
2013-7-23,90.7,78.1,65.5,49.6,44.3,35.3,47,32,19,29.88,29.76,1,0,11,0.00
2013-7-24,94.7,79.7,63.9,56.0,51.2,48.7,60,40,22,29.84,29.76,1,0,12,0.00
2013-7-25,97.1,81.7,67.6,57.3,54.8,50.7,64,42,22,29.84,29.77,2,0,11,0.00
2013-7-26,97.1,83.1,69.9,59.2,53.7,46.3,62,40,19,29.90,29.82,9,0,11,0.00
2013-7-27,91.6,76.2,67.4,54.7,51.8,48.5,61,45,24,29.85,29.78,5,0,7,0.00
2013-7-28,91.6,78.3,64.0,53.1,48.9,44.9,60,39,20,29.72,29.64,2,0,10,0.00
2013-7-29,87.2,73.4,60.4,51.1,44.3,37.1,64,39,17,29.86,29.67,1,0,11,0.00
2013-7-30,90.1,74.0,55.9,47.7,41.7,36.8,62,36,17,29.96,29.87,2,0,9,0.00
2013-7-31,89.3,75.1,60.9,47.3,40.3,32.1,51,32,16,29.92,29.83,2,0,12,0.00
2013-8-1,85.1,69.4,52.5,41.4,38.5,33.5,60,36,18,29.91,29.83,2,0,12,0.00
2013-8-2,87.8,77.7,53.8,42.3,37.9,30.9,48,26,14,29.84,29.76,9,1,13,0.00
2013-8-3,89.7,73.5,55.9,45.4,39.7,34.1,54,33,15,29.83,29.77,9,0,12,0.00
2013-8-4,88.8,74.0,58.1,44.9,40.6,32.5,53,33,15,29.85,29.80,10,0,11,0.00
2013-8-5,89.0,73.1,56.6,47.2,42.1,36.9,57,36,16,29.87,29.80,9,0,11,0.00
2013-8-6,88.0,72.9,57.5,46.6,42.4,37.7,59,37,18,29.87,29.81,10,0,12,0.00
2013-8-7,81.2,67.7,55.1,51.9,47.7,40.0,78,52,25,29.93,29.86,8,0,10,0.00
2013-8-8,81.6,65.6,50.4,50.0,45.7,39.5,84,53,23,29.92,29.81,7,0,11,0.00
2013-8-9,81.8,67.7,53.6,48.6,44.6,38.4,72,47,24,29.86,29.78,9,0,13,0.00
2013-8-10,84.5,68.8,52.6,48.7,43.7,37.2,72,45,19,29.91,29.85,9,0,11,0.00
2013-8-11,85.7,70.3,54.4,48.0,42.9,38.7,67,41,20,29.90,29.80,7,0,11,0.00
2013-8-12,87.8,71.9,55.7,47.8,41.3,35.6,62,37,17,29.87,29.82,7,0,9,0.00
2013-8-13,92.3,74.3,57.3,44.2,40.3,34.1,54,33,14,29.88,29.79,11,0,12,0.00
2013-8-14,93.8,75.3,59.0,43.3,39.3,31.9,50,31,12,29.85,29.77,10,0,13,0.00
2013-8-15,94.0,75.8,59.9,47.8,39.9,28.4,51,31,10,29.83,29.78,9,0,9,0.00
2013-8-16,96.1,76.6,57.6,51.1,38.8,24.5,58,31,8,29.88,29.81,9,0,13,0.00
2013-8-17,93.2,77.0,59.6,49.7,42.7,29.0,58,34,11,29.86,29.72,10,0,14,0.00
2013-8-18,97.1,79.3,62.7,51.8,46.9,42.4,53,34,17,29.79,29.65,6,0,7,0.00
2013-8-19,92.5,80.9,70.6,60.7,51.3,47.7,52,37,22,29.80,29.68,4,0,7,0.00
2013-8-20,96.1,81.7,68.3,57.6,52.8,48.8,59,39,21,29.73,29.66,8,0,13,0.00
2013-8-21,90.5,76.8,63.5,58.2,49.7,38.2,77,43,17,29.77,29.68,4,0,11,0.00
2013-8-22,90.1,74.9,60.1,52.8,43.7,34.1,66,37,15,29.80,29.74,6,0,11,0.00
2013-8-23,89.0,71.6,56.7,46.6,41.6,36.1,55,37,17,29.79,29.67,7,0,10,0.00
2013-8-24,86.1,70.1,56.0,50.2,43.7,39.9,63,41,21,29.76,29.69,6,0,12,0.00
2013-8-25,83.0,68.9,55.1,53.0,48.3,43.8,74,51,26,29.85,29.75,9,0,12,0.00
2013-8-26,85.5,69.3,53.9,53.2,49.0,43.0,86,53,24,29.89,29.80,9,0,10,0.00
2013-8-27,88.6,73.2,57.2,48.0,44.3,38.1,67,40,18,29.80,29.70,9,0,12,0.00
2013-8-28,89.7,74.0,59.2,50.9,43.6,37.5,60,37,17,29.81,29.70,16,0,16,0.00
2013-8-29,85.5,66.3,57.3,50.0,45.1,39.0,65,49,22,29.92,29.81,3,0,7,0.00
2013-8-30,92.5,75.3,58.3,45.5,40.9,28.1,57,33,10,29.94,29.83,2,0,14,0.00
2013-8-31,92.7,76.5,60.5,45.3,42.2,36.8,52,32,15,29.86,29.78,2,0,12,0.00
2013-9-1,87.4,75.2,62.9,50.9,45.5,38.9,54,37,19,29.81,29.75,3,0,12,0.00
2013-9-2,72.0,66.9,62.6,65.2,58.8,46.4,93,78,40,29.87,29.74,0,0,4,0.34
2013-9-3,83.0,72.3,58.6,64.1,55.1,50.2,94,57,36,29.88,29.81,5,0,7,0.01
2013-9-4,84.9,69.8,55.7,58.6,51.6,46.9,90,57,29,29.90,29.82,8,0,12,0.00
2013-9-5,82.4,67.6,53.8,54.0,44.7,30.8,82,49,16,29.90,29.80,9,0,12,0.00
2013-9-6,89.5,71.5,53.5,45.5,40.9,35.4,61,37,17,29.91,29.76,9,0,11,0.00
2013-9-7,91.8,74.8,59.0,49.3,44.2,40.1,58,37,18,29.81,29.73,6,0,13,0.00
2013-9-8,94.3,76.8,61.2,46.0,40.0,32.0,54,31,12,29.79,29.67,10,0,12,0.00
2013-9-9,95.1,78.1,62.6,47.3,41.7,36.7,48,30,14,29.71,29.58,12,0,14,0.00
2013-9-10,92.5,76.5,62.4,52.4,43.9,34.1,64,34,15,29.73,29.60,8,0,10,0.00
2013-9-11,86.3,68.7,57.3,53.4,50.0,42.8,78,55,23,29.85,29.73,6,0,9,0.00
2013-9-12,84.7,70.4,55.9,52.6,48.9,42.5,79,51,26,29.88,29.76,11,0,11,0.00
2013-9-13,88.2,74.0,59.9,56.0,52.9,50.0,72,50,28,29.78,29.62,8,0,11,0.00
2013-9-14,89.7,74.8,62.1,56.0,53.3,49.6,72,51,27,29.68,29.59,6,0,11,0.00
2013-9-15,78.5,63.0,57.2,53.4,50.3,37.3,76,65,24,29.70,29.61,2,0,5,0.00
2013-9-16,84.0,67.8,52.8,48.8,44.6,37.1,64,46,23,29.79,29.67,2,0,10,0.00
2013-9-17,74.2,63.8,54.4,48.5,45.7,41.8,71,53,34,29.80,29.65,9,0,10,0.00
2013-9-18,79.6,64.5,49.4,44.1,39.2,32.0,72,44,21,29.82,29.72,14,1,15,0.00
2013-9-19,87.8,67.7,50.2,40.0,37.1,32.2,59,37,15,29.79,29.68,12,0,12,0.00
2013-9-20,80.1,66.0,54.1,54.1,39.6,22.4,80,42,13,29.73,29.65,9,0,13,0.00
2013-9-21,58.7,57.2,55.6,53.4,52.1,51.0,92,83,79,29.75,29.69,7,0,9,0.22
2013-9-22,66.9,54.0,42.2,51.5,45.0,40.0,93,74,46,29.94,29.83,3,0,12,0.01
2013-9-23,77.0,64.8,46.5,50.7,47.9,42.6,90,58,32,29.95,29.86,9,0,11,0.00
2013-9-24,72.5,60.6,50.2,51.5,48.0,40.0,89,66,36,29.88,29.75,10,0,13,0.00
2013-9-25,63.5,54.6,46.7,47.4,37.9,26.1,90,58,27,29.82,29.74,10,1,14,0.00
2013-9-26,69.3,57.4,44.3,32.5,27.5,22.3,55,34,19,29.91,29.72,15,1,16,0.00
2013-9-27,71.6,57.5,42.9,36.8,31.3,26.1,60,40,20,30.01,29.90,8,0,12,0.00
2013-9-28,77.7,61.2,46.4,40.7,35.0,30.4,68,42,19,30.05,29.94,5,0,10,0.00
2013-9-29,72.1,61.0,50.5,52.8,44.0,34.5,80,55,35,30.02,29.95,12,0,13,0.00
2013-9-30,70.6,61.4,53.8,54.0,52.4,50.7,90,73,53,30.00,29.88,4,0,9,0.00
2013-10-1,74.6,60.3,49.6,51.3,48.0,44.3,92,67,40,29.92,29.84,7,0,10,0.00
2013-10-2,72.7,58.3,48.2,47.5,39.9,32.2,85,55,24,29.91,29.83,6,0,12,0.00
2013-10-3,72.7,57.4,40.6,36.0,26.9,12.3,74,38,11,29.97,29.84,15,1,18,0.00
2013-10-4,78.5,66.1,54.4,20.5,14.2,7.5,24,14,7,30.03,29.89,21,4,27,0.00
2013-10-5,78.1,62.7,48.3,26.2,19.3,8.2,36,20,11,30.14,30.03,10,0,10,0.00
2013-10-6,81.1,63.6,48.0,30.8,24.0,13.4,43,25,9,30.11,29.94,7,0,10,0.00
2013-10-7,79.2,63.3,50.1,27.9,23.0,14.7,37,23,9,29.94,29.80,9,0,13,0.00
2013-10-8,72.7,58.7,47.1,33.8,27.4,21.3,58,32,17,29.82,29.58,7,0,12,0.00
2013-10-9,67.3,56.0,45.1,38.1,33.6,29.8,61,44,27,29.68,29.46,12,1,13,0.00
2013-10-10,66.3,52.6,41.3,40.7,37.0,32.1,75,57,37,29.95,29.68,6,0,8,0.00
2013-10-11,69.3,54.7,42.3,39.8,37.8,34.9,81,56,31,30.02,29.92,11,0,12,0.00
2013-10-12,70.8,54.7,44.1,39.0,36.0,32.0,72,52,27,29.94,29.81,6,0,10,0.00
2013-10-13,68.6,55.9,42.9,42.6,37.2,31.8,78,52,30,29.99,29.80,13,1,17,0.00
2013-10-14,59.2,49.8,44.5,31.8,29.6,27.5,54,46,34,30.07,29.97,2,0,3,0.00
2013-10-15,75.8,60.8,46.2,34.8,25.8,15.2,60,30,14,29.99,29.90,4,0,12,0.00
2013-10-16,75.3,59.8,46.5,31.4,24.3,14.7,45,26,17,30.06,29.92,2,0,12,0.00
2013-10-17,74.9,58.6,47.6,31.9,29.5,24.0,50,35,16,30.03,29.91,6,0,13,0.00
2013-10-18,77.4,56.2,47.4,34.3,29.2,21.7,51,37,18,30.00,29.91,3,0,10,0.00
2013-10-19,79.8,62.5,49.6,32.7,29.3,24.5,45,31,14,30.03,29.94,6,0,10,0.00
2013-10-20,78.3,62.3,50.2,36.0,31.9,28.1,51,34,19,29.96,29.83,8,0,10,0.00
2013-10-21,78.8,62.0,48.2,36.8,33.4,27.0,53,37,19,29.93,29.84,5,0,5,0.00
2013-10-22,82.8,57.5,51.6,34.7,26.4,19.8,47,32,10,29.97,29.85,3,0,9,0.00
2013-10-23,80.1,63.3,51.9,26.4,23.2,19.3,30,23,11,29.89,29.77,6,0,16,0.00
2013-10-24,77.7,61.7,51.1,34.5,26.9,21.0,48,28,14,29.97,29.83,7,0,9,0.00
2013-10-25,77.2,60.6,48.8,36.4,27.1,17.8,50,30,13,30.09,29.97,9,0,10,0.00
2013-10-26,78.3,60.4,46.1,34.9,29.7,22.7,48,33,17,30.10,29.93,5,0,7,0.00
2013-10-27,72.7,56.1,42.8,41.5,30.9,23.0,88,42,20,29.93,29.49,17,1,17,0.23
2013-10-28,48.9,44.6,40.8,43.8,40.8,38.1,92,87,75,29.79,29.48,7,0,13,0.04
2013-10-29,51.3,46.3,39.6,44.0,41.1,36.9,91,82,67,30.00,29.79,3,0,7,0.01
2013-10-30,59.3,50.2,35.0,41.6,36.7,32.6,92,63,41,30.10,29.99,9,1,9,0.00
2013-10-31,67.3,50.5,36.3,41.5,38.2,33.7,91,67,33,30.15,30.03,5,0,7,0.00
2013-11-1,74.0,55.8,41.9,40.3,34.6,21.4,84,50,14,30.15,29.96,6,0,9,0.00
2013-11-2,70.3,55.9,42.5,40.4,35.9,30.1,70,50,25,30.00,29.82,5,0,7,0.00
2013-11-3,58.9,48.1,38.3,44.0,32.9,22.8,92,59,27,29.92,29.82,9,0,9,0.00
2013-11-4,64.8,50.5,34.7,29.6,20.1,12.3,79,36,14,30.00,29.81,12,1,16,0.00
2013-11-5,64.8,49.8,37.3,30.5,24.5,16.9,64,39,18,30.20,30.00,7,0,12,0.00
2013-11-6,67.8,52.5,40.3,36.4,32.3,29.3,68,49,25,30.25,30.12,5,0,7,0.00
2013-11-7,72.0,56.3,45.4,36.8,29.2,19.1,62,39,14,30.15,30.00,7,0,7,0.00
2013-11-8,72.1,55.0,44.5,35.4,29.5,22.0,59,39,22,30.04,29.90,7,0,9,0.00
2013-11-9,71.5,55.5,44.2,36.3,33.3,29.8,63,46,22,30.00,29.92,6,0,7,0.00
2013-11-10,72.7,55.2,44.5,32.5,28.4,21.5,60,39,15,30.07,29.98,5,0,9,0.00
2013-11-11,72.8,56.8,46.0,28.0,22.5,14.6,45,28,14,30.13,30.00,4,0,7,0.00
2013-11-12,72.5,58.4,48.0,34.9,29.2,22.0,55,34,18,30.23,30.08,7,0,10,0.00
2013-11-13,73.3,58.9,48.0,37.1,33.5,30.4,55,40,22,30.17,29.98,11,0,11,0.00
2013-11-14,70.4,54.2,43.5,40.4,35.3,28.7,79,52,24,30.04,29.75,5,0,10,0.00
2013-11-15,61.0,46.2,38.8,39.9,32.5,27.2,86,62,28,29.75,29.63,8,0,12,0.00
2013-11-16,58.7,46.3,37.6,36.0,31.6,29.5,75,59,34,29.88,29.69,5,0,10,0.00
2013-11-17,61.6,47.0,36.3,38.6,33.4,28.5,78,62,29,30.05,29.87,5,0,6,0.00
2013-11-18,60.4,48.4,37.6,40.7,37.3,32.9,84,67,40,30.11,29.99,9,0,10,0.00
2013-11-19,54.5,48.7,44.3,47.7,45.2,40.0,92,88,74,30.04,29.89,4,0,6,0.73
2013-11-20,51.0,49.3,46.5,49.0,47.3,44.6,93,93,92,29.89,29.78,5,0,11,0.44
2013-11-21,56.2,49.0,42.6,45.2,28.9,12.9,93,52,23,29.97,29.81,18,3,24,0.01
2013-11-22,63.4,47.5,35.5,21.7,10.9,0.1,48,25,9,30.02,29.90,12,1,15,0.00
2013-11-23,60.5,49.6,35.5,35.3,23.1,7.0,82,41,17,30.07,29.91,10,0,13,0.00
2013-11-24,57.2,42.8,32.4,38.5,31.3,21.9,88,65,42,30.22,30.07,5,0,5,0.00
2013-11-25,59.8,43.9,34.6,38.6,33.8,27.5,88,70,38,30.30,30.21,3,0,10,0.00
2013-11-26,61.0,47.4,38.2,40.2,36.9,33.3,86,69,37,30.24,30.01,2,0,3,0.00
2013-11-27,64.5,50.0,40.2,38.6,32.8,28.7,79,54,27,30.01,29.82,4,0,7,0.00
2013-11-28,64.3,50.3,42.1,35.6,32.6,28.6,73,53,28,30.03,29.83,5,0,7,0.00
2013-11-29,64.7,48.9,39.2,37.2,34.0,30.8,76,59,29,30.17,30.03,5,0,7,0.00
2013-11-30,62.3,48.6,40.3,36.8,34.6,30.4,80,60,35,30.24,30.13,7,0,11,0.00
2013-12-1,64.7,49.3,38.3,39.4,35.5,30.9,80,62,31,30.31,30.17,5,0,6,0.00
2013-12-2,62.0,49.9,39.9,41.9,36.6,30.3,74,61,40,30.18,29.81,7,0,12,0.00
2013-12-3,50.2,41.4,28.5,45.2,33.0,12.9,92,74,38,29.86,29.72,12,1,16,0.04
2013-12-4,44.1,32.4,25.8,19.0,14.7,10.1,72,50,27,30.05,29.86,6,0,8,0.00
2013-12-5,43.2,30.0,22.5,17.7,12.9,8.6,71,51,26,30.15,30.02,6,0,9,0.00
2013-12-6,39.5,29.1,21.8,29.0,20.3,13.4,91,71,42,30.19,29.86,12,0,12,0.00
2013-12-7,32.9,29.3,21.0,30.3,25.8,17.5,92,87,77,30.23,29.84,7,0,11,0.09
2013-12-8,37.0,25.1,16.7,27.2,19.8,12.7,88,80,59,30.30,30.21,7,0,7,0.10
2013-12-9,40.5,28.6,20.2,27.8,21.6,15.0,89,76,48,30.44,30.27,4,0,5,0.15
2013-12-10,47.7,34.0,24.2,28.7,24.5,20.0,89,71,35,30.42,30.18,4,0,5,0.15
2013-12-11,55.0,38.8,28.7,31.1,26.5,22.6,87,65,29,30.24,30.17,3,0,4,0.01
2013-12-12,60.5,42.6,32.8,28.0,22.8,14.5,68,49,17,30.25,30.11,4,0,6,0.00
2013-12-13,57.6,42.5,31.9,28.0,22.8,15.2,67,49,23,30.27,30.18,6,0,7,0.00
2013-12-14,60.1,41.6,31.2,31.9,26.5,22.2,74,58,23,30.39,30.26,2,0,4,0.00
2013-12-15,64.8,47.4,37.0,32.7,27.0,21.7,66,48,20,30.35,30.20,4,0,5,0.00
2013-12-16,70.9,47.9,40.9,37.2,29.6,25.0,66,51,20,30.22,30.08,1,0,3,0.00
2013-12-17,70.9,54.8,46.1,35.3,27.8,20.6,57,37,15,30.15,29.97,6,0,6,0.00
2013-12-18,63.9,51.3,43.8,37.2,31.4,24.2,72,48,30,29.97,29.62,4,0,5,0.00
2013-12-19,54.4,43.9,34.4,40.0,26.2,15.6,88,54,27,29.83,29.59,10,1,15,0.01
2013-12-20,57.2,40.2,30.1,24.3,17.7,5.3,56,42,13,29.98,29.82,7,0,12,0.00
2013-12-21,56.5,41.5,35.2,36.2,30.1,24.0,81,65,42,30.01,29.91,6,0,10,0.00
2013-12-22,61.2,46.4,35.2,36.8,31.7,25.7,70,58,36,30.27,30.04,2,0,9,0.00
2013-12-23,64.8,52.6,37.6,36.6,33.4,28.3,75,51,27,30.38,30.24,6,0,9,0.00
2013-12-24,68.8,49.8,40.8,38.6,31.3,15.9,73,51,27,30.29,30.15,4,0,6,0.00
2013-12-25,68.4,49.8,38.2,34.0,25.2,14.5,74,40,18,30.29,30.17,3,0,4,0.00
2013-12-26,69.8,50.5,40.1,30.4,22.8,15.3,52,36,13,30.27,30.15,3,0,4,0.00
2013-12-27,64.8,49.4,40.1,35.3,24.6,14.7,64,39,20,30.23,30.06,1,0,2,0.00
2013-12-28,68.8,47.8,37.3,22.1,15.5,11.8,48,30,11,30.11,29.97,7,0,12,0.00
2013-12-29,60.1,50.6,36.5,28.2,25.0,12.1,55,39,23,30.17,30.03,4,0,4,0.00
2013-12-30,65.2,48.7,39.3,27.2,21.7,15.4,53,36,15,30.24,30.15,5,0,5,0.00
2013-12-31,63.7,46.5,40.3,27.6,23.2,16.5,51,41,16,30.24,30.11,3,0,6,0.00
2014-1-1,65.0,48.1,38.9,32.8,27.2,20.5,67,46,23,30.17,30.07,4,0,5,0.00
2014-1-2,68.6,51.0,41.5,36.0,32.3,28.9,67,51,23,30.16,30.00,3,0,6,0.00